METAR Data
IDs: Format: Raw Decoded Include TAF

Data at: 1254 UTC 16 Jul 2019

KTCS 161153Z AUTO 28003KT 10SM FEW065 SCT080 SCT100 27/10 A3007 RMK AO2 SLP074 T02670100 10300 20261 53004
KTCS 161053Z AUTO 28005KT 10SM CLR 27/09 A3006 RMK AO2 SLP070 T02670089
KTCS 160953Z AUTO 04003KT 10SM CLR 26/09 A3005 RMK AO2 SLP068 T02610089
KTCS 160853Z AUTO 32003KT 10SM CLR 28/08 A3006 RMK AO2 SLP069 T02780083 56008
KTCS 160753Z AUTO 00000KT 10SM CLR 28/09 A3006 RMK AO2 SLP071 T02830089
KTCS 160653Z AUTO 31003KT 10SM CLR 29/08 A3007 RMK AO2 SLP074 T02940083 403830239
KTCS 160553Z AUTO 34004KT 10SM CLR 30/08 A3008 RMK AO2 SLP081 60000 T03000078 10383 20300 51010
KTCS 160453Z AUTO 01008KT 10SM CLR 30/08 A3008 RMK AO2 SLP081 T03000083
KTCS 160353Z AUTO 05004KT 10SM CLR 31/09 A3007 RMK AO2 SLP081 T03060089
KTCS 160253Z AUTO 03007KT 10SM SCT120 32/08 A3005 RMK AO2 RAB06E27 SLP071 P0000 60000 T03170078 51017
KTCS 160153Z AUTO 04011G22KT 10SM FEW100 32/07 A3003 RMK AO2 PK WND 05027/0137 RAB0059E14 SLP065 P0000 T03220072
KTCS 160131Z AUTO 06007KT 10SM BKN100 33/08 A3003 RMK AO2 RAB0059E14 P0000 T03330078
KTCS 160106Z AUTO 33006G19KT 10SM VCTS -RA FEW055 SCT090 BKN120 33/08 A3002 RMK AO2 RAB0059 P0000 T03330083
KTCS 160053Z AUTO 28008G21KT 10SM FEW070 FEW085 OVC120 34/07 A3002 RMK AO2 SLP064 T03440072
KTCS 152353Z AUTO 26008KT 10SM FEW120 38/03 A2999 RMK AO2 SLP049 T03780033 10383 20328 56019
KTCS 152253Z AUTO 25006KT 10SM FEW120 38/04 A3000 RMK AO2 LTG DSNT SW SLP050 T03780039
KTCS 152153Z AUTO 16008G15KT 10SM CLR 38/06 A3002 RMK AO2 SLP058 T03780056
KTCS 152053Z AUTO 15008KT 10SM CLR 37/06 A3006 RMK AO2 LTG DSNT NW SLP069 T03720056 58023
KTCS 151953Z AUTO 16005KT 10SM CLR 36/06 A3009 RMK AO2 SLP083 T03560056
KTCS 151853Z AUTO 15005KT 10SM CLR 34/07 A3011 RMK AO2 LTG DSNT W SLP090 T03440072
KTCS 151753Z AUTO 19008KT 10SM CLR 33/08 A3013 RMK AO2 SLP101 T03280083 10333 20239 58012
KTCS 151653Z AUTO VRB03KT 10SM CLR 32/09 A3015 RMK AO2 SLP107 T03170089
KTCS 151553Z AUTO 09004KT 10SM CLR 30/09 A3016 RMK AO2 SLP111 T03000094
KTCS 151453Z AUTO 02005KT 10SM CLR 29/10 A3017 RMK AO2 SLP115 T02890100 53010
KTCS 151353Z AUTO 01004KT 10SM CLR 27/09 A3017 RMK AO2 SLP114 T02720089
KTCS 151253Z AUTO 31004KT 10SM CLR 24/09 A3015 RMK AO2 SLP109 T02440089 $
KTCS 151153Z AUTO 34004KT 10SM CLR 25/08 A3014 RMK AO2 SLP103 T02500083 10283 20250 53006 $
KTCS 151053Z AUTO 00000KT 10SM FEW120 26/08 A3014 RMK AO2 SLP099 T02610083 $
KTCS 150953Z AUTO 32007KT 10SM FEW120 27/08 A3012 RMK AO2 SLP095 T02670083 $
KTCS 150853Z AUTO 34006KT 10SM CLR 27/08 A3012 RMK AO2 SLP094 T02670083 58003 $
KTCS 150753Z AUTO 30007KT 10SM CLR 27/08 A3012 RMK AO2 SLP095 T02670083 $
KTCS 150653Z AUTO 31006KT 10SM CLR 27/08 A3013 RMK AO2 SLP099 T02720078 403780222 $
KTCS 150553Z AUTO 28007KT 10SM CLR 28/08 A3013 RMK AO2 SLP100 T02830083 10361 20283 50007 $
KTCS 150453Z AUTO 27008KT 10SM CLR 29/08 A3013 RMK AO2 SLP101 T02890083 $
KTCS 150353Z AUTO 25010KT 10SM CLR 31/07 A3014 RMK AO2 SLP102 T03060072 $
KTCS 150253Z AUTO 28015G20KT 10SM CLR 32/06 A3011 RMK AO2 SLP092 T03220061 51011 $
KTCS 150153Z AUTO 26013KT 10SM CLR 33/08 A3009 RMK AO2 SLP086 T03280078 $